Carmona, Texas
Current Conditions -  °F | °C
As of 2:53 PM on Thursday 27 Nov 2014 (Local Time) from KLFK Reporting Station
Clear Clear  
Wind Chill: 66°   Ceiling: Unl
Heat Index: 66°   Visibility: 10mi
Dew Point: 25°   Wind: 5mph
Humidity: 21%   Direction: 80°E
Pressure: 30.42"   Gusts: NA
Location:  31.024°N, 94.7686°W
Report Text: KLFK 272053Z AUTO 08004KT 10SM CLR 19/M04 A3042 RMK AO2 SLP300 T01891039 56018 $
Loading
Personal Weather Stations






























Interactive Weather Map New forecast layout! Learn more

10-Day Weather Forecast

Advertisements
Track Severe Weather on mobile